Time;durP1;ratioP1;P1;durP2;ratioP2;P2;SDS_P1;SDS_P2;PMS_P1;PMS_P2;Temp;Humidity;BMP_temperature;BMP_pressure;BME280_temperature;BME280_humidity;BME280_pressure;Samples;Min_cycle;Max_cycle;Signal;HPM_P1;HPM_P2
2021/06/07 04:17:22;;;;;;;51.92;28.05;;;;;;;15.52;100.00;99161.22;5082914;23;20050;-73
2021/06/07 04:19:47;;;;;;;52.22;28.38;;;;;;;15.77;100.00;99155.25;4974577;28;20034;-73
2021/06/07 04:22:12;;;;;;;46.20;26.00;;;;;;;15.63;100.00;99159.16;4974589;28;20076;-73
2021/06/07 04:24:38;;;;;;;48.35;25.60;;;;;;;15.80;100.00;99155.97;4974574;28;20085;-73
2021/06/07 04:27:04;;;;;;;53.65;26.88;;;;;;;15.72;100.00;99159.75;4974224;28;20042;-73
2021/06/07 04:29:29;;;;;;;49.33;26.65;;;;;;;15.63;100.00;99166.09;5013987;23;20053;-77
2021/06/07 04:31:55;;;;;;;56.45;34.17;;;;;;;15.64;100.00;99166.06;4972921;28;20022;-77
2021/06/07 04:34:20;;;;;;;44.33;26.02;;;;;;;15.54;100.00;99164.63;4972996;28;20018;-77
2021/06/07 04:36:45;;;;;;;44.08;27.23;;;;;;;15.59;100.00;99160.09;4974129;28;20022;-77
2021/06/07 04:39:11;;;;;;;41.58;25.17;;;;;;;15.61;100.00;99158.28;4974140;28;20446;-76
2021/06/07 04:41:37;;;;;;;42.40;23.45;;;;;;;15.69;100.00;99158.09;4972954;28;20015;-74
2021/06/07 04:44:03;;;;;;;44.58;25.48;;;;;;;15.61;100.00;99155.69;4974186;28;20053;-74
2021/06/07 04:46:28;;;;;;;42.67;25.40;;;;;;;15.55;100.00;99150.66;4973890;28;20027;-74
2021/06/07 04:48:54;;;;;;;47.13;26.60;;;;;;;15.58;100.00;99155.78;4972786;28;20487;-74
2021/06/07 04:51:20;;;;;;;53.30;28.45;;;;;;;15.62;100.00;99146.97;4974002;28;20026;-76
2021/06/07 04:53:45;;;;;;;50.58;26.77;;;;;;;15.58;100.00;99153.19;4974046;28;20043;-75
2021/06/07 04:56:11;;;;;;;58.58;29.08;;;;;;;15.62;100.00;99156.56;4972533;28;20066;-76
2021/06/07 04:58:37;;;;;;;51.10;27.60;;;;;;;15.67;100.00;99147.69;4974092;28;20034;-75
2021/06/07 05:01:06;;;;;;;57.95;29.30;;;;;;;15.73;100.00;99148.41;4973959;28;20061;-76
2021/06/07 05:03:33;;;;;;;53.78;28.88;;;;;;;15.74;99.69;99157.94;4973992;28;20483;-75
2021/06/07 05:06:00;;;;;;;52.55;27.67;;;;;;;15.69;100.00;99158.09;4973361;28;20034;-74
2021/06/07 05:08:27;;;;;;;62.38;30.55;;;;;;;15.59;100.00;99160.09;4973695;28;20081;-74
2021/06/07 05:10:53;;;;;;;45.60;26.95;;;;;;;15.64;100.00;99160.84;4973847;28;20023;-73
2021/06/07 05:13:19;;;;;;;57.83;29.00;;;;;;;15.73;100.00;99151.00;4973932;28;20467;-74
2021/06/07 05:15:44;;;;;;;52.92;28.00;;;;;;;15.76;100.00;99153.50;4973657;28;20030;-74
2021/06/07 05:18:11;;;;;;;54.03;28.90;;;;;;;15.63;100.00;99163.47;4973585;28;20487;-74
2021/06/07 05:20:37;;;;;;;54.40;28.02;;;;;;;15.62;100.00;99161.78;4972120;28;20062;-75
2021/06/07 05:23:03;;;;;;;58.13;29.27;;;;;;;15.51;100.00;99164.72;4973424;28;20062;-74
2021/06/07 05:25:32;;;;;;;54.53;28.48;;;;;;;15.68;100.00;99162.47;4972140;28;20023;-75
2021/06/07 05:27:58;;;;;;;52.95;28.33;;;;;;;15.58;100.00;99166.25;4973397;28;20030;-74
2021/06/07 05:30:26;;;;;;;54.42;27.10;;;;;;;15.48;100.00;99170.06;4973214;28;20031;-75
2021/06/07 05:32:53;;;;;;;55.35;27.98;;;;;;;15.50;100.00;99173.47;4972190;28;20587;-75
2021/06/07 05:35:20;;;;;;;55.35;28.17;;;;;;;15.47;100.00;99170.94;4973493;28;20505;-74
2021/06/07 05:37:46;;;;;;;53.90;27.85;;;;;;;15.50;100.00;99176.06;4971920;28;20030;-75
2021/06/07 05:40:14;;;;;;;54.90;26.38;;;;;;;15.59;100.00;99170.56;4973346;28;20103;-75
2021/06/07 05:42:40;;;;;;;54.75;27.20;;;;;;;15.70;100.00;99174.63;4973329;28;20073;-74
2021/06/07 05:45:08;;;;;;;52.00;26.55;;;;;;;15.57;100.00;99175.00;4972004;28;20031;-75
2021/06/07 05:47:33;;;;;;;58.78;27.95;;;;;;;15.65;100.00;99178.22;4973065;28;20035;-76
2021/06/07 05:49:59;;;;;;;51.28;26.38;;;;;;;15.65;100.00;99178.22;4973109;28;20031;-74
2021/06/07 05:52:24;;;;;;;56.75;26.45;;;;;;;15.62;100.00;99177.47;4973122;28;20399;-75
2021/06/07 05:54:50;;;;;;;50.28;26.98;;;;;;;15.56;100.00;99181.09;4973259;28;20037;-74
2021/06/07 05:57:15;;;;;;;67.72;28.20;;;;;;;15.45;100.00;99175.38;4973009;28;20110;-74
2021/06/07 05:59:43;;;;;;;58.50;28.42;;;;;;;15.54;100.00;99188.13;4973074;28;20031;-75
2021/06/07 06:02:09;;;;;;;52.33;26.00;;;;;;;15.66;100.00;99182.56;4973042;28;20154;-74
2021/06/07 06:04:35;;;;;;;57.75;27.30;;;;;;;15.51;100.00;99179.53;4965088;28;20511;-76
2021/06/07 06:07:02;;;;;;;53.10;23.85;;;;;;;15.75;100.00;99183.16;4970136;28;20109;-74
2021/06/07 06:09:28;;;;;;;47.45;25.65;;;;;;;15.86;100.00;99175.84;4971249;28;20034;-74
2021/06/07 06:11:54;;;;;;;47.53;24.65;;;;;;;15.82;100.00;99189.91;4972827;28;20031;-75
2021/06/07 06:14:20;;;;;;;47.20;24.35;;;;;;;15.89;100.00;99186.16;4972795;28;20038;-75
2021/06/07 06:16:45;;;;;;;50.75;24.48;;;;;;;15.79;100.00;99190.00;4971419;28;20047;-75
2021/06/07 06:19:12;;;;;;;45.83;24.27;;;;;;;15.89;100.00;99187.03;4975512;28;20106;-75
2021/06/07 06:21:39;;;;;;;45.67;25.30;;;;;;;15.89;100.00;99191.41;4974298;28;20015;-74
2021/06/07 06:24:06;;;;;;;47.63;24.92;;;;;;;15.79;100.00;99190.00;4976557;28;20022;-74
2021/06/07 06:26:32;;;;;;;58.25;26.35;;;;;;;15.72;100.00;99189.34;4976385;28;20082;-74
2021/06/07 06:28:57;;;;;;;54.15;25.98;;;;;;;15.82;100.00;99195.13;4975032;28;20487;-74
2021/06/07 06:31:23;;;;;;;49.38;25.20;;;;;;;15.87;100.00;99188.00;4976224;28;20102;-75
2021/06/07 06:33:48;;;;;;;50.78;24.98;;;;;;;15.85;100.00;99195.88;4975755;28;20054;-74
2021/06/07 06:36:14;;;;;;;45.17;24.35;;;;;;;15.84;100.00;99193.31;4976300;28;20077;-75
2021/06/07 06:38:39;;;;;;;48.15;25.58;;;;;;;15.89;100.00;99192.25;4975906;28;20388;-75
2021/06/07 06:41:05;;;;;;;50.72;25.33;;;;;;;15.80;100.00;99200.38;4976306;28;20078;-74
2021/06/07 06:43:32;;;;;;;49.22;24.40;;;;;;;15.79;100.00;99197.84;4974298;28;20045;-74
2021/06/07 06:45:57;;;;;;;47.25;25.10;;;;;;;15.82;100.00;99197.75;4974509;28;20019;-75
2021/06/07 06:48:23;;;;;;;57.35;25.83;;;;;;;15.82;100.00;99206.44;4974168;28;20097;-74
2021/06/07 06:50:48;;;;;;;49.08;25.90;;;;;;;15.74;100.00;99202.34;4974619;28;20042;-75
2021/06/07 06:53:17;;;;;;;50.85;26.83;;;;;;;15.68;100.00;99206.88;4976136;28;20026;-75
2021/06/07 06:55:44;;;;;;;53.30;26.65;;;;;;;15.68;100.00;99208.63;4973771;28;20085;-75
2021/06/07 06:58:10;;;;;;;52.22;26.70;;;;;;;15.83;100.00;99210.75;4975779;28;20037;-74
2021/06/07 07:00:36;;;;;;;54.83;26.90;;;;;;;15.89;100.00;99209.69;4975831;28;20023;-75
2021/06/07 07:03:09;;;;;;;51.22;25.13;;;;;;;15.94;100.00;99202.56;4975825;28;20486;-74
2021/06/07 07:05:35;;;;;;;59.15;25.33;;;;;;;15.90;100.00;99203.56;4974375;28;20475;-75
2021/06/07 07:08:01;;;;;;;54.60;25.40;;;;;;;15.98;100.00;99201.56;4973417;28;20022;-75
2021/06/07 07:10:26;;;;;;;55.58;25.90;;;;;;;16.02;100.00;99208.38;4974396;28;20460;-74
2021/06/07 07:12:52;;;;;;;50.30;26.42;;;;;;;16.07;100.00;99206.47;4975692;28;20041;-74
2021/06/07 07:15:17;;;;;;;49.08;25.58;;;;;;;16.03;100.00;99204.88;4975658;28;20369;-75
2021/06/07 07:17:44;;;;;;;49.00;23.98;;;;;;;15.92;100.00;99212.22;4975210;28;20054;-75
2021/06/07 07:20:10;;;;;;;47.35;24.10;;;;;;;16.00;100.00;99207.56;4974702;28;20019;-74
2021/06/07 07:22:36;;;;;;;49.75;24.80;;;;;;;15.93;100.00;99214.78;4975545;28;20033;-74
2021/06/07 07:25:04;;;;;;;47.85;25.05;;;;;;;16.06;100.00;99210.00;4974894;28;20026;-75
2021/06/07 07:27:30;;;;;;;45.90;22.85;;;;;;;16.18;100.00;99214.81;4975163;28;20109;-75
2021/06/07 07:29:56;;;;;;;47.90;24.98;;;;;;;16.30;100.00;99212.69;4972811;28;20103;-76
2021/06/07 07:32:25;;;;;;;44.95;23.65;;;;;;;16.30;100.00;99207.47;4974493;28;20085;-75
2021/06/07 07:34:50;;;;;;;42.53;22.57;;;;;;;16.42;99.78;99212.25;4975271;28;20025;-74
2021/06/07 07:37:16;;;;;;;40.05;22.63;;;;;;;16.47;99.39;99205.09;4973798;28;20278;-76
2021/06/07 07:39:41;;;;;;;41.25;22.85;;;;;;;16.37;99.50;99208.94;4975136;28;20109;-74
2021/06/07 07:42:07;;;;;;;39.47;21.65;;;;;;;16.49;99.25;99213.78;4974273;28;20432;-74
2021/06/07 07:44:33;;;;;;;43.90;24.45;;;;;;;16.29;99.63;99216.19;4975031;28;20500;-75
2021/06/07 07:47:00;;;;;;;43.53;24.05;;;;;;;16.27;100.00;99221.50;4975031;28;20498;-75
2021/06/07 07:49:26;;;;;;;44.15;23.23;;;;;;;16.39;100.00;99217.59;4974770;28;20022;-75
2021/06/07 07:51:52;;;;;;;40.42;22.50;;;;;;;16.64;98.93;99215.84;4957835;28;20027;-75
2021/06/07 07:54:17;;;;;;;33.28;20.60;;;;;;;16.69;97.83;99216.53;4974101;28;20496;-75
2021/06/07 07:56:43;;;;;;;39.22;21.58;;;;;;;16.68;97.83;99213.94;4974591;28;20027;-74
2021/06/07 07:59:08;;;;;;;37.13;21.65;;;;;;;16.52;98.56;99224.09;4973474;28;20034;-75
2021/06/07 08:01:34;;;;;;;34.70;22.80;;;;;;;16.59;97.69;99217.78;4974748;28;20034;-76
2021/06/07 08:04:00;;;;;;;38.85;22.73;;;;;;;16.50;98.55;99225.94;4973480;28;20030;-75
2021/06/07 08:06:26;;;;;;;35.95;20.92;;;;;;;16.67;97.43;99213.09;4972510;28;20027;-76
2021/06/07 08:08:51;;;;;;;38.47;21.98;;;;;;;16.72;97.54;99214.72;4974558;28;20073;-75
2021/06/07 08:11:17;;;;;;;45.03;23.60;;;;;;;16.68;97.63;99213.94;4974573;28;20026;-74
2021/06/07 08:13:42;;;;;;;35.03;21.27;;;;;;;16.79;97.91;99222.31;4973169;28;20063;-76
2021/06/07 08:16:08;;;;;;;41.15;22.05;;;;;;;16.79;97.18;99221.47;4969722;28;20046;-75
2021/06/07 08:18:33;;;;;;;37.08;21.17;;;;;;;16.79;97.73;99216.22;4972493;28;20038;-76
2021/06/07 08:20:59;;;;;;;35.28;21.25;;;;;;;16.91;97.02;99215.78;4973079;28;20019;-75
2021/06/07 08:23:25;;;;;;;34.03;20.95;;;;;;;16.96;97.07;99214.69;4974387;28;20425;-75
2021/06/07 08:25:50;;;;;;;38.55;22.23;;;;;;;16.96;96.20;99221.69;4974229;28;20034;-75
2021/06/07 08:28:16;;;;;;;30.75;21.15;;;;;;;17.02;96.45;99211.00;4971970;28;20027;-76
2021/06/07 08:30:41;;;;;;;37.40;21.40;;;;;;;16.97;96.36;99215.56;4973655;28;20023;-74
2021/06/07 08:33:07;;;;;;;35.63;20.40;;;;;;;16.89;96.98;99217.59;4971904;28;20417;-76
2021/06/07 08:35:33;;;;;;;31.85;19.60;;;;;;;16.97;97.08;99210.34;4974604;28;20066;-78
2021/06/07 08:37:59;;;;;;;33.20;20.75;;;;;;;17.04;97.24;99217.03;4973056;28;20479;-75
2021/06/07 08:40:24;;;;;;;38.90;22.52;;;;;;;17.00;96.80;99215.44;4971243;28;20030;-74
2021/06/07 08:42:50;;;;;;;33.25;21.00;;;;;;;16.98;97.53;99214.66;4974280;28;20470;-75
2021/06/07 08:45:18;;;;;;;40.90;20.58;;;;;;;17.06;97.92;99215.19;4974083;28;20475;-75
2021/06/07 08:47:46;;;;;;;41.50;21.60;;;;;;;17.18;97.20;99213.91;4972041;28;20085;-75
2021/06/07 08:50:14;;;;;;;36.88;20.77;;;;;;;17.14;96.62;99210.53;4971999;28;20054;-75
2021/06/07 08:52:43;;;;;;;36.92;22.45;;;;;;;17.19;95.71;99221.69;4972632;28;20031;-75
2021/06/07 08:55:11;;;;;;;39.13;21.05;;;;;;;17.20;95.94;99217.31;4972608;28;20085;-74
2021/06/07 08:57:49;;;;;;;48.72;21.83;;;;;;;17.34;95.89;99216.78;4973716;28;20030;-75
2021/06/07 09:00:20;;;;;;;33.70;19.38;;;;;;;17.43;94.81;99219.91;4973701;28;20077;-75
2021/06/07 09:02:48;;;;;;;33.00;20.17;;;;;;;17.30;95.35;99220.41;4972208;28;20054;-75
2021/06/07 09:05:14;;;;;;;31.13;19.35;;;;;;;17.28;94.55;99220.50;4972946;28;20114;-75
2021/06/07 09:07:52;;;;;;;43.35;21.00;;;;;;;17.38;94.46;99218.38;4973401;28;20113;-75
2021/06/07 09:10:18;;;;;;;38.80;20.92;;;;;;;17.42;94.53;99222.59;4973447;28;20027;-74
2021/06/07 09:12:44;;;;;;;35.97;20.88;;;;;;;17.37;95.00;99224.53;4973441;28;20423;-74
2021/06/07 09:15:24;;;;;;;36.30;20.27;;;;;;;17.20;95.63;99223.38;4972991;28;20087;-75
2021/06/07 09:17:49;;;;;;;38.13;20.70;;;;;;;17.36;95.56;99228.06;4972051;28;20432;-76
2021/06/07 09:20:19;;;;;;;40.40;21.52;;;;;;;17.24;95.56;99220.66;4973375;28;20031;-75
2021/06/07 09:23:14;;;;;;;31.80;21.23;;;;;;;17.18;96.81;99220.00;4973397;28;20030;-76
2021/06/07 09:25:45;;;;;;;42.40;22.48;;;;;;;17.07;96.66;99224.78;4972123;28;20035;-76
2021/06/07 09:28:19;;;;;;;35.03;22.27;;;;;;;17.17;96.65;99222.69;4972411;28;20034;-76
2021/06/07 09:30:54;;;;;;;35.47;21.23;;;;;;;17.34;96.24;99227.25;4971779;28;20066;-76
2021/06/07 09:33:22;;;;;;;35.47;22.75;;;;;;;17.27;96.17;99228.41;4972059;28;20054;-75
2021/06/07 09:36:05;;;;;;;40.03;23.13;;;;;;;17.28;96.24;99222.25;4973299;28;20361;-75
2021/06/07 09:38:31;;;;;;;55.67;23.50;;;;;;;17.27;96.47;99217.94;4971174;28;20125;-75
2021/06/07 09:41:01;;;;;;;37.03;21.95;;;;;;;17.47;95.34;99220.63;4973069;28;20023;-76
2021/06/07 09:43:26;;;;;;;;;;;;;;;17.75;94.44;99222.22;4972323;28;20023;-76
2021/06/07 09:45:56;;;;;;;37.67;22.58;;;;;;;17.85;93.59;99220.94;4972083;28;19956;-76
2021/06/07 09:48:28;;;;;;;33.15;19.75;;;;;;;17.89;92.74;99228.59;4972970;28;20022;-75
2021/06/07 09:51:01;;;;;;;41.10;21.38;;;;;;;17.95;92.72;99227.50;4972613;28;20278;-76
2021/06/07 09:53:51;;;;;;;37.03;22.02;;;;;;;17.73;93.24;99223.09;4977782;28;20519;-75
2021/06/07 09:56:18;;;;;;;31.27;19.75;;;;;;;17.93;92.34;99234.56;4978122;28;20031;-76
2021/06/07 09:58:46;;;;;;;28.88;19.45;;;;;;;17.95;92.42;99227.50;4979399;28;20030;-75
2021/06/07 10:01:17;;;;;;;28.58;19.08;;;;;;;18.28;91.09;99219.16;4977100;28;20023;-76
2021/06/07 10:03:49;;;;;;;34.70;19.67;;;;;;;18.11;91.39;99225.94;4978679;28;20019;-75
2021/06/07 10:06:17;;;;;;;29.10;19.85;;;;;;;18.34;91.48;99224.13;4979357;28;20494;-75
2021/06/07 10:08:45;;;;;;;28.17;20.15;;;;;;;18.30;89.80;99227.81;4977999;28;20078;-74
2021/06/07 10:11:16;;;;;;;31.02;20.65;;;;;;;18.29;90.58;99231.34;4979216;28;20018;-75
2021/06/07 10:13:42;;;;;;;32.10;19.25;;;;;;;18.15;90.51;99230.16;4977934;28;20578;-74
2021/06/07 10:16:09;;;;;;;33.28;19.83;;;;;;;18.04;91.40;99227.13;4977719;28;20023;-74
2021/06/07 10:18:34;;;;;;;44.25;27.98;;;;;;;18.16;91.05;99223.97;4979091;28;20057;-75
2021/06/07 10:21:00;;;;;;;28.80;19.67;;;;;;;18.18;92.01;99219.53;4961857;28;20015;-75
2021/06/07 10:23:28;;;;;;;31.77;21.13;;;;;;;18.16;90.50;99226.59;4979278;28;20491;-74
2021/06/07 10:25:56;;;;;;;30.67;19.98;;;;;;;18.19;91.07;99223.88;4978157;28;20030;-75
2021/06/07 10:28:28;;;;;;;36.05;21.52;;;;;;;18.11;90.92;99228.56;4978827;28;20023;-75
2021/06/07 10:30:55;;;;;;;34.15;21.35;;;;;;;18.13;90.96;99221.50;4979528;28;20027;-76
2021/06/07 10:33:28;;;;;;;30.45;21.13;;;;;;;18.24;90.23;99223.66;4979116;28;20031;-74
2021/06/07 10:35:54;;;;;;;33.97;21.15;;;;;;;18.17;91.61;99228.31;4978840;28;20031;-74
2021/06/07 10:38:34;;;;;;;34.72;22.50;;;;;;;18.17;91.29;99222.22;4972355;28;20510;-74
2021/06/07 10:41:39;;;;;;;38.20;22.42;;;;;;;18.09;91.44;99227.78;4967164;28;20123;-75
2021/06/07 10:44:04;;;;;;;38.03;22.35;;;;;;;18.03;92.16;99225.41;4903789;29;20233;-75
2021/06/07 10:46:33;;;;;;;34.47;23.48;;;;;;;18.01;92.42;99232.47;4907630;29;20130;-76
2021/06/07 10:49:01;;;;;;;37.85;22.35;;;;;;;18.18;91.76;99229.16;4934224;28;20042;-75
2021/06/07 10:51:29;;;;;;;33.72;22.52;;;;;;;18.12;91.28;99229.41;4966752;28;20030;-75
2021/06/07 10:54:30;;;;;;;54.28;33.67;;;;;;;18.12;92.39;99227.63;4969479;28;20034;-75
2021/06/07 10:57:15;;;;;;;35.80;22.13;;;;;;;18.26;92.07;99231.47;4969693;28;20054;-75
2021/06/07 10:59:51;;;;;;;33.10;20.98;;;;;;;18.38;90.49;99236.22;4970055;28;20484;-74
2021/06/07 11:02:18;;;;;;;34.30;21.35;;;;;;;18.20;91.21;99233.44;4969218;28;20038;-75
2021/06/07 11:04:44;;;;;;;36.22;22.50;;;;;;;18.07;92.11;99242.72;4963156;28;20038;-76
2021/06/07 11:07:10;;;;;;;33.67;23.63;;;;;;;18.02;93.50;99234.19;4962826;28;20488;-75
2021/06/07 11:09:36;;;;;;;35.50;23.42;;;;;;;17.85;94.60;99231.41;4961169;28;20022;-76
2021/06/07 11:12:04;;;;;;;44.75;26.45;;;;;;;17.81;96.24;99228.06;4963248;28;20037;-73
2021/06/07 11:14:30;;;;;;;44.72;26.35;;;;;;;17.65;96.88;99232.19;4965766;28;20034;-75
2021/06/07 11:16:55;;;;;;;41.10;25.63;;;;;;;17.43;98.36;99224.28;4965974;28;20023;-74
2021/06/07 11:19:21;;;;;;;48.53;28.50;;;;;;;17.50;98.92;99225.75;4965137;28;20049;-74
2021/06/07 11:21:55;;;;;;;41.22;28.25;;;;;;;17.55;98.90;99218.59;4964522;28;20018;-75
2021/06/07 11:24:30;;;;;;;40.53;27.45;;;;;;;17.96;97.75;99223.97;4964786;28;20027;-75
2021/06/07 11:26:56;;;;;;;40.70;26.92;;;;;;;18.34;95.57;99218.88;4966184;28;20030;-75
2021/06/07 11:29:22;;;;;;;39.75;26.70;;;;;;;18.54;95.11;99211.00;4965210;28;20111;-74
2021/06/07 11:31:50;;;;;;;38.40;25.67;;;;;;;18.65;93.47;99211.38;4961845;28;20035;-74
2021/06/07 11:34:18;;;;;;;39.45;27.00;;;;;;;18.72;92.49;99207.63;4964862;28;20027;-75
2021/06/07 11:36:49;;;;;;;38.80;24.30;;;;;;;18.93;91.68;99208.41;4964629;28;20054;-75
2021/06/07 11:39:23;;;;;;;39.55;27.42;;;;;;;18.93;93.25;99210.19;4965361;28;20049;-74
2021/06/07 11:42:01;;;;;;;44.38;28.08;;;;;;;18.56;93.47;99206.53;4967342;28;20022;-74
2021/06/07 11:44:42;;;;;;;51.40;28.30;;;;;;;18.35;94.73;99210.09;4966751;28;20058;-75
2021/06/07 11:47:08;;;;;;;42.13;28.17;;;;;;;18.15;94.94;99217.03;4965473;28;20031;-74
2021/06/07 11:49:34;;;;;;;48.85;29.45;;;;;;;17.89;96.35;99220.75;4962991;28;20087;-75
2021/06/07 11:52:09;;;;;;;78.10;52.88;;;;;;;18.13;96.73;99205.78;4966672;28;20022;-74
2021/06/07 11:54:34;;;;;;;43.90;28.80;;;;;;;18.23;96.81;99209.72;4962758;28;20045;-75
2021/06/07 11:57:04;;;;;;;44.03;29.25;;;;;;;18.32;97.77;99213.69;4962267;28;20030;-75
2021/06/07 11:59:32;;;;;;;46.55;28.50;;;;;;;18.33;97.02;99207.53;4964578;28;20030;-75
2021/06/07 12:01:58;;;;;;;51.10;28.13;;;;;;;18.37;96.62;99210.88;4964683;28;20031;-74
2021/06/07 12:04:32;;;;;;;39.30;27.15;;;;;;;18.47;94.86;99209.59;4964941;28;20037;-74
2021/06/07 12:07:02;;;;;;;43.67;26.88;;;;;;;18.56;95.10;99201.28;4964164;28;20480;-75
2021/06/07 12:09:29;;;;;;;36.30;25.92;;;;;;;18.75;94.97;99212.72;4970495;28;20039;-74
2021/06/07 12:11:56;;;;;;;37.15;25.70;;;;;;;19.08;92.83;99206.88;4971206;28;20649;-75
2021/06/07 12:14:25;;;;;;;39.15;25.42;;;;;;;19.42;92.18;99215.81;4964189;28;20077;-75
2021/06/07 12:16:51;;;;;;;36.85;24.95;;;;;;;19.76;89.94;99215.94;4964182;28;20069;-75
2021/06/07 12:19:16;;;;;;;64.95;40.53;;;;;;;19.91;88.96;99214.31;4965560;28;20057;-75
2021/06/07 12:21:42;;;;;;;35.63;23.25;;;;;;;20.30;86.59;99213.28;4964084;28;20122;-74
2021/06/07 12:24:11;;;;;;;30.50;21.27;;;;;;;20.37;87.03;99205.94;4963455;28;20038;-75
2021/06/07 12:29:32;;;;;;;34.17;20.20;;;;;;;20.70;85.72;99192.84;4965904;28;20049;-74
2021/06/07 12:32:13;;;;;;;30.25;19.20;;;;;;;20.59;85.13;99188.09;4963205;28;21266;-74
2021/06/07 12:35:16;;;;;;;54.88;41.65;;;;;;;20.25;85.98;99192.44;4962793;28;20046;-75
2021/06/07 12:37:41;;;;;;;27.20;18.73;;;;;;;20.23;85.40;99189.06;4963760;28;20038;-74
2021/06/07 12:40:16;;;;;;;26.80;16.58;;;;;;;20.41;85.47;99186.41;4963529;28;20027;-75
2021/06/07 12:42:44;;;;;;;17.48;14.65;;;;;;;20.24;87.39;99185.47;4963780;28;20054;-74
2021/06/07 12:45:14;;;;;;;15.68;12.40;;;;;;;20.40;84.56;99184.69;4964797;28;20089;-75
2021/06/07 12:47:39;;;;;;;15.57;13.65;;;;;;;21.23;80.35;99187.31;4964112;28;20062;-75
2021/06/07 12:50:15;;;;;;;18.17;13.52;;;;;;;21.38;79.10;99190.06;4962700;28;20054;-76
2021/06/07 12:52:41;;;;;;;16.05;13.27;;;;;;;21.14;80.00;99186.97;4963039;28;20034;-75
2021/06/07 12:55:08;;;;;;;18.23;14.93;;;;;;;20.89;83.72;99192.72;4972143;28;20050;-76
2021/06/07 12:57:34;;;;;;;24.73;17.52;;;;;;;20.47;83.84;99196.66;4962011;28;20444;-75
2021/06/07 13:00:25;;;;;;;20.45;16.33;;;;;;;20.44;83.10;99202.03;4964247;28;20110;-74
2021/06/07 13:02:51;;;;;;;19.98;15.80;;;;;;;20.52;83.65;99194.63;4964869;28;20037;-75
2021/06/07 13:05:36;;;;;;;21.00;16.15;;;;;;;20.74;81.56;99195.22;4962459;28;20026;-74
2021/06/07 13:08:13;;;;;;;21.70;16.42;;;;;;;20.68;81.88;99190.25;4963928;28;20027;-74
2021/06/07 13:10:45;;;;;;;23.42;16.73;;;;;;;20.50;82.63;99192.09;4962908;28;20027;-75
2021/06/07 13:13:20;;;;;;;26.25;18.63;;;;;;;20.12;82.77;99188.75;4963104;28;20022;-75
2021/06/07 13:16:11;;;;;;;22.27;17.30;;;;;;;20.59;82.55;99179.34;4963382;28;20022;-75
2021/06/07 13:19:05;;;;;;;24.02;18.30;;;;;;;21.08;81.20;99177.63;4963157;28;20424;-75
2021/06/07 13:21:37;;;;;;;29.30;19.50;;;;;;;21.11;80.10;99176.56;4962897;28;20019;-74
2021/06/07 13:24:03;;;;;;;30.20;19.30;;;;;;;21.40;79.88;99181.13;4963409;28;20026;-75
2021/06/07 13:26:34;;;;;;;27.85;20.23;;;;;;;21.39;78.97;99176.78;4963820;28;20032;-76
2021/06/07 13:29:31;;;;;;;27.45;20.00;;;;;;;21.36;77.21;99176.09;4964979;28;20415;-75
2021/06/07 13:32:01;;;;;;;25.88;19.80;;;;;;;21.31;77.69;99173.72;4951076;28;20054;-75
2021/06/07 13:34:29;;;;;;;30.88;20.83;;;;;;;21.20;80.18;99174.28;4964527;28;20053;-75
2021/06/07 13:37:16;;;;;;;26.40;19.40;;;;;;;21.33;78.55;99171.88;4963871;28;20031;-76
2021/06/07 13:39:42;;;;;;;32.67;21.40;;;;;;;21.20;79.98;99174.28;4962096;28;20024;-74
2021/06/07 13:42:09;;;;;;;26.02;19.55;;;;;;;21.39;80.26;99176.78;4962432;28;20039;-74
2021/06/07 13:44:56;;;;;;;30.08;20.60;;;;;;;21.34;79.43;99173.56;4962546;28;20030;-76
2021/06/07 13:47:29;;;;;;;29.45;20.48;;;;;;;21.29;78.37;99176.41;4964132;28;20030;-75
2021/06/07 13:50:05;;;;;;;39.97;29.02;;;;;;;21.49;77.60;99174.47;4964104;28;20031;-76
2021/06/07 13:52:43;;;;;;;30.10;20.42;;;;;;;21.12;79.09;99178.28;4961522;28;20085;-74
2021/06/07 13:55:14;;;;;;;27.23;20.20;;;;;;;21.09;81.25;99176.66;4962223;28;20053;-74
2021/06/07 13:58:03;;;;;;;27.83;20.70;;;;;;;20.81;82.01;99173.81;4964193;28;20086;-76
2021/06/07 14:00:32;;;;;;;25.35;19.27;;;;;;;20.53;83.40;99180.53;4962888;28;20023;-77
2021/06/07 14:02:57;;;;;;;25.40;18.75;;;;;;;20.19;83.54;99176.97;4962101;28;20117;-77
2021/06/07 14:05:25;;;;;;;25.80;18.90;;;;;;;20.08;84.89;99168.78;4961845;28;20865;-75
2021/06/07 14:07:50;;;;;;;21.02;17.23;;;;;;;19.89;85.19;99173.25;4960919;28;20023;-75
2021/06/07 14:10:16;;;;;;;24.15;18.35;;;;;;;19.61;87.26;99169.34;4963175;28;20034;-74
2021/06/07 14:12:43;;;;;;;22.23;16.55;;;;;;;19.93;86.94;99169.56;4964383;28;20484;-74
2021/06/07 14:15:09;;;;;;;25.35;17.80;;;;;;;20.35;83.23;99165.66;4962972;28;20626;-74
2021/06/07 14:17:35;;;;;;;22.52;16.98;;;;;;;20.99;80.93;99162.31;4962787;28;20096;-74
2021/06/07 14:20:01;;;;;;;22.55;16.17;;;;;;;21.16;80.54;99156.94;4962231;28;20081;-75
2021/06/07 14:25:12;;;;;;;24.67;17.55;;;;;;;20.79;82.27;99145.78;4964015;28;20069;-74
2021/06/07 14:27:37;;;;;;;21.80;17.10;;;;;;;21.66;78.59;99140.09;4964082;28;20062;-74
2021/06/07 14:30:04;;;;;;;23.40;18.55;;;;;;;20.42;82.47;99146.00;4963600;28;20187;-74
2021/06/07 14:32:30;;;;;;;24.08;18.05;;;;;;;20.76;83.43;99135.41;4964531;28;20097;-74
2021/06/07 14:34:55;;;;;;;54.30;37.88;;;;;;;21.15;80.93;99134.16;4961450;28;20035;-75
2021/06/07 14:37:21;;;;;;;25.33;18.50;;;;;;;20.78;81.26;99144.06;4963871;28;20046;-76
2021/06/07 14:39:46;;;;;;;22.20;16.60;;;;;;;20.88;80.07;99139.16;4966571;28;20026;-75
2021/06/07 14:42:12;;;;;;;24.95;17.90;;;;;;;20.21;81.34;99146.19;4966839;28;20022;-75
2021/06/07 14:44:37;;;;;;;24.40;17.95;;;;;;;20.36;81.83;99134.00;4967134;28;20026;-75
2021/06/07 14:47:03;;;;;;;21.42;15.57;;;;;;;21.23;80.67;99123.19;4967150;28;20031;-75
2021/06/07 14:49:28;;;;;;;23.00;18.10;;;;;;;21.22;80.80;99124.13;4965893;28;20031;-76
2021/06/07 14:51:55;;;;;;;23.25;17.17;;;;;;;21.56;77.48;99131.00;4969705;28;20027;-74
2021/06/07 14:54:22;;;;;;;24.08;16.92;;;;;;;21.14;77.62;99128.97;4965488;28;20134;-76
2021/06/07 14:56:50;;;;;;;22.13;16.35;;;;;;;21.01;78.37;99124.38;4965465;28;20453;-75
2021/06/07 14:59:16;;;;;;;23.63;16.27;;;;;;;20.53;80.76;99123.47;4967239;28;20027;-76
2021/06/07 15:01:42;;;;;;;21.90;16.52;;;;;;;20.57;80.11;99118.03;4967132;28;20416;-75
2021/06/07 15:04:07;;;;;;;17.77;14.43;;;;;;;22.28;77.19;99109.16;4964496;28;20023;-76
2021/06/07 15:06:32;;;;;;;16.70;14.25;;;;;;;22.84;73.24;99106.63;4967547;28;20031;-75
2021/06/07 15:08:58;;;;;;;17.92;14.77;;;;;;;22.22;74.54;99104.25;4967600;28;20042;-76
2021/06/07 15:11:23;;;;;;;21.55;15.57;;;;;;;21.73;76.27;99107.16;4967405;28;20113;-78
2021/06/07 15:13:48;;;;;;;19.60;15.05;;;;;;;21.49;77.34;99105.94;4964156;28;20030;-75
2021/06/07 15:16:14;;;;;;;24.90;16.23;;;;;;;20.76;81.04;99108.22;4969054;28;20039;-76
2021/06/07 15:18:41;;;;;;;28.25;18.40;;;;;;;20.57;81.87;99107.50;4967516;28;20026;-76
2021/06/07 15:21:06;;;;;;;21.98;17.50;;;;;;;20.50;81.54;99106.97;4966144;28;20019;-76
2021/06/07 15:23:32;;;;;;;24.33;17.42;;;;;;;20.31;81.95;99111.47;4964805;28;20027;-74
2021/06/07 15:25:57;;;;;;;24.20;17.63;;;;;;;20.36;82.32;99114.75;4966022;28;20031;-80
2021/06/07 15:28:23;;;;;;;31.85;22.17;;;;;;;20.04;83.27;99130.41;4965400;28;20069;-75
2021/06/07 15:30:49;;;;;;;34.53;20.60;;;;;;;19.64;85.99;99137.66;4968013;28;20027;-77
2021/06/07 15:33:15;;;;;;;24.63;18.92;;;;;;;19.62;86.37;99142.13;4965757;28;20041;-76
2021/06/07 15:35:42;;;;;;;28.02;18.95;;;;;;;19.63;88.18;99141.22;4966799;28;20035;-76
2021/06/07 15:38:16;;;;;;;27.85;19.75;;;;;;;19.72;85.55;99135.50;4965770;28;20070;-76
2021/06/07 15:40:42;;;;;;;26.30;18.65;;;;;;;19.71;85.21;99141.69;4966735;28;20031;-76
2021/06/07 15:43:07;;;;;;;35.00;20.30;;;;;;;19.62;85.90;99143.91;4965333;28;20783;-77